Time;durP1;ratioP1;P1;durP2;ratioP2;P2;SDS_P1;SDS_P2;PMS_P1;PMS_P2;Temp;Humidity;BMP_temperature;BMP_pressure;BME280_temperature;BME280_humidity;BME280_pressure;Samples;Min_cycle;Max_cycle;Signal;HPM_P1;HPM_P2
2023/06/09 00:03:33;;;;;;;9.53;8.67;;;17.20;99.90;;;;;;10319066;28;20205;-85
2023/06/09 00:09:06;;;;;;;9.57;8.83;;;17.10;99.90;;;;;;10447908;28;20710;-83
2023/06/09 00:14:21;;;;;;;9.43;8.63;;;17.10;99.90;;;;;;10445233;28;20289;-84
2023/06/09 00:25:20;;;;;;;9.97;9.07;;;17.00;99.90;;;;;;10454887;28;20195;-85
2023/06/09 00:30:25;;;;;;;10.40;9.33;;;17.00;99.90;;;;;;10432272;28;20189;-82
2023/06/09 00:35:33;;;;;;;9.30;8.60;;;17.00;99.90;;;;;;10448532;28;20225;-83
2023/06/09 00:40:39;;;;;;;10.07;9.40;;;17.00;99.90;;;;;;10453310;28;20229;-84
2023/06/09 00:45:46;;;;;;;9.10;8.40;;;17.00;99.90;;;;;;10456817;28;20273;-83
2023/06/09 00:50:53;;;;;;;10.00;9.23;;;17.00;99.90;;;;;;10454741;28;20595;-84
2023/06/09 00:55:56;;;;;;;10.60;9.70;;;17.00;99.90;;;;;;10449158;28;20228;-82
2023/06/09 01:00:58;;;;;;;10.10;9.40;;;16.90;99.90;;;;;;10443229;28;20307;-83
2023/06/09 01:06:12;;;;;;;9.10;8.40;;;16.90;99.90;;;;;;10439696;28;20238;-84
2023/06/09 01:11:21;;;;;;;11.47;9.43;;;16.90;99.90;;;;;;10456046;28;20186;-84
2023/06/09 01:16:28;;;;;;;10.83;10.03;;;16.90;99.90;;;;;;10458805;28;20280;-85
2023/06/09 01:21:40;;;;;;;9.40;8.73;;;16.90;99.90;;;;;;10450235;28;20224;-83
2023/06/09 01:26:45;;;;;;;10.80;9.70;;;16.90;99.90;;;;;;10455303;28;20217;-84
2023/06/09 01:31:48;;;;;;;10.07;9.37;;;16.80;99.90;;;;;;10473870;28;20280;-84
2023/06/09 01:36:53;;;;;;;10.60;9.80;;;16.80;99.90;;;;;;10441585;28;20675;-84
2023/06/09 01:41:57;;;;;;;10.87;10.03;;;16.80;99.90;;;;;;10444068;28;20290;-85
2023/06/09 01:47:00;;;;;;;10.50;9.70;;;16.80;99.90;;;;;;10440685;28;20242;-84
2023/06/09 01:52:09;;;;;;;11.27;10.10;;;16.70;99.90;;;;;;10451565;28;20202;-83
2023/06/09 01:57:20;;;;;;;10.10;9.40;;;16.70;99.90;;;;;;10437474;28;20214;-83
2023/06/09 02:02:26;;;;;;;10.57;9.67;;;16.70;99.90;;;;;;10461310;28;20206;-82
2023/06/09 02:07:30;;;;;;;11.57;10.03;;;16.70;99.90;;;;;;10439252;28;20238;-81
2023/06/09 02:12:34;;;;;;;11.90;10.70;;;16.60;99.90;;;;;;10434428;28;20199;-84
2023/06/09 02:17:36;;;;;;;11.73;10.83;;;16.60;99.90;;;;;;10422242;28;20308;-83
2023/06/09 02:22:40;;;;;;;10.07;9.33;;;16.60;99.90;;;;;;10449400;28;20228;-82
2023/06/09 02:27:45;;;;;;;11.73;10.80;;;16.60;99.90;;;;;;10444742;28;20246;-84
2023/06/09 02:33:00;;;;;;;10.57;9.77;;;16.60;99.90;;;;;;10446847;28;20190;-81
2023/06/09 02:38:09;;;;;;;10.97;10.10;;;16.60;99.90;;;;;;10443822;28;20708;-84
2023/06/09 02:43:31;;;;;;;12.07;11.10;;;16.50;99.90;;;;;;10431942;28;20194;-84
2023/06/09 02:48:50;;;;;;;11.97;10.80;;;16.50;99.90;;;;;;10455465;28;20215;-84
2023/06/09 02:54:02;;;;;;;11.90;10.90;;;16.50;99.90;;;;;;10451691;28;20212;-83
2023/06/09 02:59:12;;;;;;;11.70;10.70;;;16.50;99.90;;;;;;10444492;28;20309;-83
2023/06/09 03:09:52;;;;;;;11.80;10.80;;;16.50;99.90;;;;;;10435139;28;20220;-83
2023/06/09 03:14:56;;;;;;;11.43;10.63;;;16.40;99.90;;;;;;10444162;28;20195;-84
2023/06/09 03:20:08;;;;;;;11.00;10.27;;;16.40;99.90;;;;;;10453448;28;20209;-83
2023/06/09 03:25:31;;;;;;;12.13;11.13;;;16.40;99.90;;;;;;10443621;28;20595;-83
2023/06/09 03:30:40;;;;;;;11.43;10.63;;;16.40;99.90;;;;;;10444937;28;20236;-84
2023/06/09 03:35:55;;;;;;;12.20;11.30;;;16.30;99.90;;;;;;10440175;28;20222;-83
2023/06/09 03:41:17;;;;;;;11.53;10.63;;;16.30;99.90;;;;;;10438297;28;20213;-84
2023/06/09 03:46:46;;;;;;;11.00;10.20;;;16.30;99.90;;;;;;10421692;28;20215;-83
2023/06/09 03:51:59;;;;;;;12.30;11.40;;;16.30;99.90;;;;;;10442689;28;20194;-84
2023/06/09 03:57:05;;;;;;;11.57;10.73;;;16.30;99.90;;;;;;10419781;28;20214;-83
2023/06/09 04:02:16;;;;;;;12.00;11.10;;;16.30;99.90;;;;;;10425921;28;20268;-83
2023/06/09 04:07:23;;;;;;;13.30;12.27;;;16.30;99.90;;;;;;10441138;28;20205;-84
2023/06/09 04:12:25;;;;;;;12.63;11.53;;;16.30;99.90;;;;;;10468344;28;20722;-84
2023/06/09 04:17:29;;;;;;;13.87;12.77;;;16.30;99.90;;;;;;10437874;28;20228;-83
2023/06/09 04:22:32;;;;;;;11.67;10.80;;;16.40;99.90;;;;;;10441698;28;20257;-83
2023/06/09 04:27:35;;;;;;;12.93;12.00;;;16.40;99.90;;;;;;10444218;28;20221;-83
2023/06/09 04:32:41;;;;;;;31.77;12.30;;;16.40;99.90;;;;;;10431751;28;20568;-85
2023/06/09 04:37:44;;;;;;;13.23;12.23;;;16.50;99.90;;;;;;10439871;28;20298;-84
2023/06/09 04:42:50;;;;;;;13.57;12.13;;;16.50;99.90;;;;;;10440449;28;20232;-84
2023/06/09 04:47:57;;;;;;;13.77;12.57;;;16.50;99.90;;;;;;10422710;28;20619;-83
2023/06/09 04:53:03;;;;;;;13.67;12.60;;;16.60;99.90;;;;;;10443121;28;20208;-84
2023/06/09 04:58:06;;;;;;;14.40;13.27;;;16.70;99.90;;;;;;10442502;28;20271;-83
2023/06/09 05:03:13;;;;;;;14.03;12.73;;;16.80;99.90;;;;;;10440579;28;20801;-86
2023/06/09 05:08:15;;;;;;;13.70;12.60;;;16.80;99.90;;;;;;10408702;28;20210;-86
2023/06/09 05:13:19;;;;;;;14.10;13.00;;;16.90;99.90;;;;;;10446340;28;20194;-86
2023/06/09 05:18:26;;;;;;;13.17;12.17;;;16.90;99.90;;;;;;10457061;28;20244;-85
2023/06/09 05:23:28;;;;;;;14.33;13.13;;;17.00;99.90;;;;;;10428445;28;20210;-86
2023/06/09 05:28:31;;;;;;;13.80;12.60;;;17.10;99.90;;;;;;10427664;28;20221;-86
2023/06/09 05:33:37;;;;;;;14.37;12.97;;;17.10;99.90;;;;;;10424059;28;20229;-86
2023/06/09 05:38:39;;;;;;;13.93;12.83;;;17.20;99.90;;;;;;10426003;28;20215;-85
2023/06/09 05:43:41;;;;;;;11.40;10.50;;;17.30;99.90;;;;;;10450748;28;20199;-86
2023/06/09 05:48:45;;;;;;;13.80;12.80;;;17.30;99.90;;;;;;10444123;28;20618;-86
2023/06/09 05:53:47;;;;;;;13.93;12.83;;;17.40;99.90;;;;;;10435887;28;20261;-86
2023/06/09 05:58:50;;;;;;;15.33;14.10;;;17.50;99.90;;;;;;10437209;28;20746;-86
2023/06/09 06:03:53;;;;;;;15.80;14.50;;;17.60;99.90;;;;;;10416510;28;20194;-86
2023/06/09 06:08:55;;;;;;;16.37;14.97;;;17.70;99.90;;;;;;10431069;28;20218;-85
2023/06/09 06:13:57;;;;;;;15.80;14.50;;;17.90;99.90;;;;;;10436853;28;20221;-85
2023/06/09 06:19:01;;;;;;;15.50;14.10;;;17.90;99.90;;;;;;10433461;28;20254;-85
2023/06/09 06:24:03;;;;;;;16.90;15.40;;;18.10;99.90;;;;;;10443360;28;20574;-85
2023/06/09 06:29:06;;;;;;;19.13;17.43;;;18.20;99.90;;;;;;10440227;28;20218;-84
2023/06/09 06:34:09;;;;;;;17.30;15.67;;;18.40;99.90;;;;;;10450846;28;20539;-85
2023/06/09 06:39:12;;;;;;;16.43;15.03;;;18.60;99.90;;;;;;10438780;28;20210;-85
2023/06/09 06:44:14;;;;;;;15.20;14.00;;;18.80;99.90;;;;;;10432227;28;20207;-85
2023/06/09 06:49:18;;;;;;;15.80;14.20;;;19.20;99.90;;;;;;10429217;28;20219;-86
2023/06/09 06:54:20;;;;;;;15.90;14.40;;;19.50;99.90;;;;;;10433935;28;20194;-86
2023/06/09 06:59:22;;;;;;;14.57;13.37;;;19.80;99.90;;;;;;10433192;28;20272;-86
2023/06/09 07:04:26;;;;;;;12.87;11.70;;;20.10;99.90;;;;;;10429697;28;20622;-85
2023/06/09 07:09:28;;;;;;;11.60;10.47;;;20.40;99.90;;;;;;10438135;28;20309;-86
2023/06/09 07:14:31;;;;;;;10.37;9.40;;;20.70;99.90;;;;;;10435525;28;20554;-86
2023/06/09 07:19:35;;;;;;;9.93;9.00;;;21.10;99.90;;;;;;10430266;28;20214;-86
2023/06/09 07:24:37;;;;;;;8.97;8.27;;;21.60;99.90;;;;;;10443651;28;20202;-86
2023/06/09 07:29:41;;;;;;;9.63;8.83;;;22.10;99.90;;;;;;10443822;28;20285;-86
2023/06/09 07:34:45;;;;;;;8.23;7.63;;;22.60;99.90;;;;;;10430924;28;20198;-87
2023/06/09 07:39:47;;;;;;;8.07;7.47;;;23.10;99.90;;;;;;10413085;28;20570;-87
2023/06/09 07:44:49;;;;;;;8.27;7.57;;;23.60;99.90;;;;;;10431850;28;20210;-85
2023/06/09 07:49:52;;;;;;;8.70;7.80;;;24.20;99.90;;;;;;10436751;28;20280;-86
2023/06/09 07:54:55;;;;;;;7.27;6.60;;;24.70;99.90;;;;;;10432767;28;20858;-85
2023/06/09 07:59:57;;;;;;;6.80;6.10;;;25.20;99.90;;;;;;10428011;28;20304;-88
2023/06/09 08:05:01;;;;;;;5.87;5.47;;;25.60;99.30;;;;;;10435508;28;20202;-86
2023/06/09 08:10:03;;;;;;;7.17;6.53;;;26.10;98.20;;;;;;10439649;28;20194;-87
2023/06/09 08:15:07;;;;;;;6.10;5.60;;;26.50;93.90;;;;;;10447571;28;20187;-88
2023/06/09 08:20:11;;;;;;;6.27;5.60;;;26.90;94.60;;;;;;10456991;28;20286;-85
2023/06/09 08:25:13;;;;;;;7.10;6.60;;;27.30;92.30;;;;;;10429856;28;20225;-87
2023/06/09 08:30:16;;;;;;;6.13;5.73;;;27.60;90.60;;;;;;10427663;28;20285;-87
2023/06/09 08:40:35;;;;;;;5.70;5.30;;;28.10;91.00;;;;;;10359388;28;20226;-78
2023/06/09 08:45:41;;;;;;;6.60;6.00;;;28.20;90.30;;;;;;10357196;28;20192;-78
2023/06/09 08:50:43;;;;;;;6.30;5.90;;;28.50;86.40;;;;;;10351047;28;20941;-79
2023/06/09 08:55:47;;;;;;;6.10;5.70;;;28.60;82.60;;;;;;10359226;28;20239;-78
2023/06/09 09:00:51;;;;;;;6.50;5.37;;;28.70;85.00;;;;;;10370044;28;20231;-78
2023/06/09 09:05:54;;;;;;;4.90;4.60;;;29.00;83.20;;;;;;10375540;28;20720;-79
2023/06/09 09:10:57;;;;;;;4.67;4.37;;;29.30;82.10;;;;;;10353465;28;20295;-79
2023/06/09 09:16:00;;;;;;;4.30;4.00;;;29.60;82.30;;;;;;10354010;28;20224;-78
2023/06/09 09:21:03;;;;;;;5.07;4.67;;;30.00;79.70;;;;;;10352088;28;20236;-78
2023/06/09 09:26:07;;;;;;;5.07;4.60;;;30.30;76.70;;;;;;10358678;28;20641;-79
2023/06/09 09:31:09;;;;;;;4.57;4.27;;;30.60;76.30;;;;;;10375547;28;20199;-79
2023/06/09 09:36:12;;;;;;;4.57;4.27;;;31.00;74.10;;;;;;10362599;28;20638;-79
2023/06/09 09:41:15;;;;;;;4.40;3.80;;;31.70;70.00;;;;;;10363057;28;20238;-78
2023/06/09 09:46:20;;;;;;;4.43;4.23;;;32.40;69.20;;;;;;10365893;28;20241;-79
2023/06/09 09:51:22;;;;;;;4.73;4.33;;;33.30;66.90;;;;;;10363867;28;20199;-79
2023/06/09 09:56:27;;;;;;;2.70;2.60;;;34.40;64.50;;;;;;10365058;28;20215;-79
2023/06/09 10:01:29;;;;;;;3.47;3.28;;;35.60;60.60;;;;;;10379706;28;20270;-79
2023/06/09 10:06:34;;;;;;;3.80;3.53;;;36.70;57.10;;;;;;10365047;28;20490;-79
2023/06/09 10:11:39;;;;;;;3.63;3.42;;;37.80;56.90;;;;;;10377574;28;20539;-78
2023/06/09 10:16:42;;;;;;;4.60;3.85;;;38.80;56.00;;;;;;10362099;28;20215;-79
2023/06/09 10:21:46;;;;;;;3.25;3.10;;;39.40;52.10;;;;;;10360676;28;20254;-79
2023/06/09 10:26:50;;;;;;;3.10;3.00;;;38.40;49.40;;;;;;10363815;28;20219;-78
2023/06/09 10:31:54;;;;;;;3.23;3.07;;;36.20;51.10;;;;;;10360228;28;20191;-78
2023/06/09 10:36:57;;;;;;;3.57;3.37;;;34.10;51.70;;;;;;10375386;28;20664;-79
2023/06/09 10:42:15;;;;;;;3.03;2.83;;;32.50;52.30;;;;;;10375475;28;20290;-78
2023/06/09 10:47:45;;;;;;;4.80;4.00;;;31.10;55.00;;;;;;10361899;28;20228;-77
2023/06/09 10:52:53;;;;;;;4.23;3.93;;;29.80;56.60;;;;;;10358956;28;20219;-79
2023/06/09 10:57:58;;;;;;;3.83;3.63;;;28.90;57.20;;;;;;10353133;28;20215;-77
2023/06/09 11:03:29;;;;;;;3.90;3.50;;;28.20;57.60;;;;;;10363947;28;20226;-77
2023/06/09 11:09:02;;;;;;;5.10;4.23;;;27.70;60.30;;;;;;10376329;28;20212;-78
2023/06/09 11:14:06;;;;;;;3.10;2.90;;;27.20;59.90;;;;;;10359074;28;20288;-78
2023/06/09 11:19:20;;;;;;;3.40;3.20;;;27.00;62.20;;;;;;10354570;28;20216;-77
2023/06/09 11:24:23;;;;;;;3.93;3.70;;;26.70;62.30;;;;;;10371139;28;20199;-77
2023/06/09 11:29:26;;;;;;;4.03;3.73;;;26.50;60.70;;;;;;10355485;28;20220;-77
2023/06/09 11:34:51;;;;;;;3.83;3.63;;;26.40;63.40;;;;;;10369833;28;20667;-78
2023/06/09 11:39:53;;;;;;;3.30;3.10;;;26.20;62.50;;;;;;10356707;28;20301;-77
2023/06/09 11:45:01;;;;;;;4.17;3.87;;;26.20;64.80;;;;;;10353601;28;20304;-77
2023/06/09 11:50:05;;;;;;;4.30;4.00;;;26.20;64.20;;;;;;10358776;28;20211;-77
2023/06/09 11:55:11;;;;;;;3.63;3.43;;;26.30;63.80;;;;;;10355754;28;20201;-77
2023/06/09 12:00:17;;;;;;;3.60;3.40;;;26.30;62.90;;;;;;10356459;28;20266;-78
2023/06/09 12:05:21;;;;;;;3.57;3.37;;;26.50;63.70;;;;;;10357995;28;20228;-79
2023/06/09 12:10:27;;;;;;;3.87;3.57;;;26.50;66.70;;;;;;10365786;28;20852;-79
2023/06/09 12:15:31;;;;;;;4.20;3.90;;;26.50;64.60;;;;;;10355386;28;20263;-79
2023/06/09 12:20:35;;;;;;;3.60;3.40;;;26.50;63.90;;;;;;10355020;28;20215;-78
2023/06/09 12:25:39;;;;;;;3.30;3.10;;;26.50;60.00;;;;;;10356227;28;20656;-78
2023/06/09 12:30:47;;;;;;;3.70;3.50;;;26.60;63.20;;;;;;10350941;28;20195;-79
2023/06/09 12:35:51;;;;;;;4.27;3.90;;;26.60;64.00;;;;;;10350894;28;20223;-78
2023/06/09 12:40:55;;;;;;;3.93;3.73;;;26.60;63.40;;;;;;10354145;28;20265;-78
2023/06/09 12:45:58;;;;;;;3.53;3.33;;;26.50;63.70;;;;;;10353829;28;20247;-77
2023/06/09 12:51:00;;;;;;;3.60;3.40;;;26.40;65.10;;;;;;10369468;28;20204;-77
2023/06/09 12:56:03;;;;;;;4.37;4.07;;;26.40;65.10;;;;;;10350831;28;20298;-78
2023/06/09 13:01:06;;;;;;;3.70;3.50;;;26.40;64.00;;;;;;10352421;28;20215;-77
2023/06/09 13:06:08;;;;;;;3.93;3.57;;;26.40;64.90;;;;;;10366588;28;20227;-78
2023/06/09 13:11:11;;;;;;;3.63;3.43;;;26.30;63.80;;;;;;10354552;28;20201;-78
2023/06/09 13:16:14;;;;;;;4.60;4.30;;;26.20;62.80;;;;;;10349996;28;20215;-77
2023/06/09 13:21:17;;;;;;;4.17;3.73;;;26.00;65.20;;;;;;10350006;28;20222;-78
2023/06/09 13:26:19;;;;;;;3.80;3.50;;;25.90;63.80;;;;;;10349909;28;20212;-78
2023/06/09 13:31:22;;;;;;;3.60;3.40;;;25.90;62.60;;;;;;10363314;28;20196;-78
2023/06/09 13:36:24;;;;;;;3.90;3.60;;;26.00;65.90;;;;;;10354554;28;20231;-77
2023/06/09 13:41:27;;;;;;;4.20;3.90;;;26.10;63.30;;;;;;10344130;28;20246;-78
2023/06/09 13:46:30;;;;;;;3.67;3.47;;;26.10;61.70;;;;;;10358087;28;20219;-78
2023/06/09 13:51:35;;;;;;;4.10;3.80;;;26.00;64.10;;;;;;10367611;28;20270;-78
2023/06/09 13:56:37;;;;;;;3.77;3.57;;;25.80;63.90;;;;;;10353946;28;20226;-79
2023/06/09 14:01:43;;;;;;;3.83;3.63;;;25.70;65.70;;;;;;10357245;28;20226;-78
2023/06/09 14:06:45;;;;;;;3.77;3.53;;;25.60;67.00;;;;;;10354389;28;20224;-77
2023/06/09 14:11:47;;;;;;;4.70;4.40;;;25.70;63.80;;;;;;10352479;28;20191;-79
2023/06/09 14:16:51;;;;;;;9.83;8.80;;;25.80;63.10;;;;;;10376438;28;20215;-78
2023/06/09 14:21:53;;;;;;;4.93;4.63;;;25.80;62.80;;;;;;10359188;28;20298;-77
2023/06/09 14:26:55;;;;;;;5.50;5.10;;;25.70;64.80;;;;;;10359101;28;20310;-78
2023/06/09 14:31:59;;;;;;;4.23;3.93;;;25.60;62.30;;;;;;10359856;28;20203;-79
2023/06/09 14:37:01;;;;;;;4.33;4.03;;;25.60;61.70;;;;;;10404427;22;20235;-86
2023/06/09 14:42:04;;;;;;;3.97;3.67;;;25.80;62.60;;;;;;10538107;28;20227;-86
2023/06/09 14:47:08;;;;;;;3.73;3.53;;;25.90;63.90;;;;;;10546809;28;20267;-86
2023/06/09 14:52:10;;;;;;;3.60;3.40;;;25.90;63.70;;;;;;10543584;28;20192;-86
2023/06/09 14:57:13;;;;;;;4.23;3.93;;;25.80;62.50;;;;;;10548359;28;20277;-86
2023/06/09 15:02:16;;;;;;;3.87;3.67;;;25.80;61.20;;;;;;10539932;28;20947;-86
2023/06/09 15:07:18;;;;;;;4.17;3.77;;;25.80;60.80;;;;;;10540354;28;20209;-87
2023/06/09 15:12:20;;;;;;;3.20;3.00;;;25.80;60.10;;;;;;10530729;28;20215;-86
2023/06/09 15:17:24;;;;;;;4.43;4.03;;;25.80;59.50;;;;;;10556750;28;20198;-88
2023/06/09 15:22:26;;;;;;;3.60;3.40;;;25.80;62.30;;;;;;10542645;28;20228;-86
2023/06/09 15:27:28;;;;;;;3.70;3.50;;;25.70;63.20;;;;;;10540818;28;20216;-84
2023/06/09 15:32:32;;;;;;;3.90;3.60;;;25.70;62.20;;;;;;10540201;28;20185;-86
2023/06/09 15:37:34;;;;;;;4.50;4.20;;;25.70;62.10;;;;;;10524348;28;20588;-86
2023/06/09 15:42:36;;;;;;;3.13;3.00;;;25.80;62.30;;;;;;10550441;28;20303;-87
2023/06/09 15:47:39;;;;;;;4.07;3.77;;;25.70;61.20;;;;;;10558623;28;20219;-84
2023/06/09 15:52:43;;;;;;;4.23;3.93;;;25.60;61.90;;;;;;10513423;28;20188;-87
2023/06/09 15:57:45;;;;;;;3.40;3.20;;;25.50;63.80;;;;;;10506546;28;20244;-86
2023/06/09 16:02:48;;;;;;;3.40;3.20;;;25.40;61.20;;;;;;10563177;28;20284;-86
2023/06/09 16:07:50;;;;;;;4.50;4.20;;;25.30;66.50;;;;;;10536277;28;20690;-87
2023/06/09 16:12:53;;;;;;;4.93;4.53;;;25.30;62.90;;;;;;10537444;28;20188;-87
2023/06/09 16:17:56;;;;;;;5.83;4.53;;;25.40;61.90;;;;;;10536521;28;20340;-86
2023/06/09 16:22:58;;;;;;;6.23;4.27;;;25.50;63.00;;;;;;10536667;28;20220;-86
2023/06/09 16:28:01;;;;;;;5.27;4.77;;;25.50;59.20;;;;;;10531408;28;20235;-85
2023/06/09 16:33:04;;;;;;;4.67;4.30;;;25.60;58.50;;;;;;10535947;28;20550;-86
2023/06/09 16:38:07;;;;;;;4.53;4.23;;;25.60;59.60;;;;;;10534868;28;20723;-84
2023/06/09 16:43:09;;;;;;;9.30;6.30;;;25.50;61.40;;;;;;10535119;28;20216;-86
2023/06/09 16:48:12;;;;;;;5.47;5.00;;;25.40;60.90;;;;;;10544854;28;20220;-86
2023/06/09 16:53:14;;;;;;;7.60;6.70;;;25.30;60.50;;;;;;10528878;28;20208;-86
2023/06/09 16:58:18;;;;;;;5.30;4.90;;;25.30;60.40;;;;;;10535042;28;20729;-85
2023/06/09 17:03:21;;;;;;;5.50;5.00;;;25.20;61.00;;;;;;10526407;28;20318;-85
2023/06/09 17:08:23;;;;;;;5.27;4.87;;;25.10;64.80;;;;;;10534296;28;20718;-86
2023/06/09 17:13:25;;;;;;;5.07;4.67;;;25.00;63.10;;;;;;10535771;28;20561;-85
2023/06/09 17:18:29;;;;;;;5.60;5.13;;;24.90;60.20;;;;;;10535138;28;20223;-87
2023/06/09 17:23:32;;;;;;;5.73;5.33;;;25.00;60.00;;;;;;10506324;28;20244;-86
2023/06/09 17:28:34;;;;;;;5.27;4.97;;;24.90;61.80;;;;;;10529096;28;20227;-85
2023/06/09 17:33:38;;;;;;;6.23;5.63;;;24.90;66.20;;;;;;10506265;28;20205;-86
2023/06/09 17:38:40;;;;;;;5.80;5.40;;;24.90;63.80;;;;;;10532649;28;20269;-86
2023/06/09 17:43:42;;;;;;;7.27;6.77;;;24.80;63.70;;;;;;10536363;28;20790;-86
2023/06/09 17:48:46;;;;;;;6.97;6.27;;;24.80;65.60;;;;;;10531338;28;20650;-86
2023/06/09 17:53:50;;;;;;;5.70;5.30;;;24.80;65.90;;;;;;10544850;28;20204;-86
2023/06/09 17:58:54;;;;;;;6.20;5.70;;;24.80;67.30;;;;;;10542306;28;20216;-86
2023/06/09 18:03:57;;;;;;;7.70;6.33;;;24.80;66.70;;;;;;10538347;28;20293;-86
2023/06/09 18:08:59;;;;;;;6.63;5.23;;;24.70;66.00;;;;;;10538792;28;20220;-86
2023/06/09 18:14:01;;;;;;;5.60;5.20;;;24.70;66.80;;;;;;10529829;28;20195;-87
2023/06/09 18:19:05;;;;;;;6.30;5.90;;;24.70;70.40;;;;;;10539627;28;20585;-87
2023/06/09 18:24:08;;;;;;;6.57;6.03;;;24.60;70.40;;;;;;10539755;28;20365;-86
2023/06/09 18:29:10;;;;;;;6.80;6.20;;;24.40;72.70;;;;;;10517045;28;20243;-84
2023/06/09 18:34:13;;;;;;;6.50;6.00;;;24.30;74.10;;;;;;10540993;28;20193;-86
2023/06/09 18:39:28;;;;;;;7.70;7.00;;;24.20;72.00;;;;;;10546104;28;20220;-85
2023/06/09 18:44:30;;;;;;;8.00;7.37;;;24.10;70.40;;;;;;10558802;28;20279;-86
2023/06/09 18:49:37;;;;;;;6.90;6.30;;;23.90;70.00;;;;;;10534646;28;20272;-86
2023/06/09 18:54:39;;;;;;;6.77;6.37;;;23.90;73.70;;;;;;10532068;28;20193;-86
2023/06/09 18:59:41;;;;;;;6.40;5.87;;;23.90;71.70;;;;;;10539275;28;20262;-86
2023/06/09 19:04:48;;;;;;;6.57;6.07;;;23.80;75.50;;;;;;10539816;28;20220;-86
2023/06/09 19:09:50;;;;;;;6.73;6.23;;;23.70;73.90;;;;;;10539124;28;20285;-86
2023/06/09 19:14:52;;;;;;;7.00;6.37;;;23.60;73.80;;;;;;10529831;28;20204;-86
2023/06/09 19:19:56;;;;;;;6.87;6.33;;;23.50;74.00;;;;;;10538717;28;20212;-86
2023/06/09 19:24:58;;;;;;;6.00;5.60;;;23.50;74.60;;;;;;10537545;28;20221;-86
2023/06/09 19:30:00;;;;;;;6.67;6.17;;;23.40;74.90;;;;;;10533733;28;20216;-85
2023/06/09 19:35:05;;;;;;;7.23;6.63;;;23.30;74.00;;;;;;10536110;28;20220;-87
2023/06/09 19:40:09;;;;;;;6.60;6.20;;;23.20;75.00;;;;;;10532541;28;20230;-86
2023/06/09 19:45:11;;;;;;;7.53;7.03;;;23.10;75.50;;;;;;10534330;28;20274;-87
2023/06/09 19:50:15;;;;;;;6.63;6.13;;;23.00;76.20;;;;;;10523337;28;20212;-87
2023/06/09 19:55:17;;;;;;;6.70;6.20;;;22.90;76.00;;;;;;10532706;28;20185;-86
2023/06/09 20:00:19;;;;;;;7.40;6.90;;;22.80;76.00;;;;;;10534205;28;20250;-87
2023/06/09 20:05:23;;;;;;;6.87;6.27;;;22.70;77.10;;;;;;10534996;28;20687;-87
2023/06/09 20:10:25;;;;;;;6.17;5.60;;;22.60;76.80;;;;;;10533698;28;20213;-87
2023/06/09 20:15:28;;;;;;;6.90;6.40;;;22.60;77.60;;;;;;10524485;28;20193;-85
2023/06/09 20:20:32;;;;;;;6.73;6.23;;;22.50;78.60;;;;;;10525185;28;20216;-87
2023/06/09 20:25:34;;;;;;;6.97;6.27;;;22.40;77.00;;;;;;10528404;28;20303;-86
2023/06/09 20:30:36;;;;;;;6.93;6.43;;;22.30;76.80;;;;;;10535570;28;20241;-87
2023/06/09 20:35:40;;;;;;;6.17;5.77;;;22.30;76.50;;;;;;10552236;28;20555;-85
2023/06/09 20:40:43;;;;;;;6.53;6.03;;;22.20;76.80;;;;;;10567190;22;20236;-77
2023/06/09 20:45:47;;;;;;;7.00;6.40;;;22.10;77.20;;;;;;10539473;28;20220;-78
2023/06/09 20:50:50;;;;;;;5.47;5.07;;;22.10;78.50;;;;;;10522478;28;20284;-78
2023/06/09 20:55:52;;;;;;;6.10;5.60;;;22.00;77.30;;;;;;10538106;28;20200;-77
2023/06/09 21:00:55;;;;;;;6.27;5.70;;;22.00;75.20;;;;;;10515623;28;20212;-78
2023/06/09 21:05:59;;;;;;;6.70;6.20;;;21.90;74.10;;;;;;10519008;28;20701;-77
2023/06/09 21:11:01;;;;;;;5.60;5.20;;;21.90;75.10;;;;;;10538677;28;20216;-77
2023/06/09 21:16:03;;;;;;;5.63;5.33;;;21.80;74.70;;;;;;10538822;28;20198;-76
2023/06/09 21:21:07;;;;;;;6.50;6.00;;;21.80;73.90;;;;;;10518830;28;20243;-78
2023/06/09 21:26:09;;;;;;;6.67;6.17;;;21.70;75.10;;;;;;10547329;28;20188;-78
2023/06/09 21:31:11;;;;;;;6.70;6.10;;;21.60;74.40;;;;;;10547620;28;20262;-77
2023/06/09 21:36:15;;;;;;;6.40;5.90;;;21.60;74.60;;;;;;10547751;28;20196;-78
2023/06/09 21:41:17;;;;;;;7.03;6.40;;;21.50;75.70;;;;;;10547736;28;20290;-77
2023/06/09 21:46:19;;;;;;;6.93;5.40;;;21.40;76.10;;;;;;10547022;28;20193;-79
2023/06/09 21:51:23;;;;;;;6.30;5.80;;;21.40;78.40;;;;;;10546334;28;20213;-77
2023/06/09 21:56:25;;;;;;;6.23;5.77;;;21.30;76.60;;;;;;10547562;28;20209;-77
2023/06/09 22:01:27;;;;;;;7.77;7.07;;;21.20;76.10;;;;;;10530053;28;20205;-77
2023/06/09 22:06:30;;;;;;;6.60;6.10;;;21.20;75.50;;;;;;10549127;28;20329;-77
2023/06/09 22:11:33;;;;;;;6.80;6.30;;;21.10;76.30;;;;;;10547620;28;20222;-78
2023/06/09 22:16:35;;;;;;;6.90;6.37;;;21.10;77.00;;;;;;10548961;28;20189;-78
2023/06/09 22:21:38;;;;;;;6.13;5.73;;;21.00;78.80;;;;;;10546628;28;20268;-78
2023/06/09 22:26:40;;;;;;;7.30;6.10;;;20.90;80.50;;;;;;10544990;28;20193;-77
2023/06/09 22:31:43;;;;;;;6.87;6.30;;;20.90;78.80;;;;;;10545430;28;20196;-77
2023/06/09 22:36:46;;;;;;;7.07;6.57;;;20.80;79.30;;;;;;10521410;28;20619;-78
2023/06/09 22:41:48;;;;;;;6.97;6.37;;;20.80;78.70;;;;;;10546507;28;20211;-78
2023/06/09 22:46:50;;;;;;;6.70;6.20;;;20.80;79.50;;;;;;10547362;28;20261;-77
2023/06/09 22:51:54;;;;;;;6.57;5.97;;;20.70;80.10;;;;;;10548340;28;20243;-78
2023/06/09 22:56:56;;;;;;;7.13;6.63;;;20.70;79.50;;;;;;10547081;28;20204;-78
2023/06/09 23:01:58;;;;;;;6.97;6.47;;;20.70;80.90;;;;;;10547566;28;20212;-77
2023/06/09 23:07:04;;;;;;;6.80;6.30;;;20.60;80.50;;;;;;10546371;28;20238;-78
2023/06/09 23:12:07;;;;;;;7.47;6.87;;;20.60;81.60;;;;;;10546910;28;20185;-78
2023/06/09 23:17:09;;;;;;;7.70;7.10;;;20.60;82.90;;;;;;10545131;28;20220;-77
2023/06/09 23:22:18;;;;;;;7.13;6.70;;;20.60;82.80;;;;;;10545617;28;20220;-77
2023/06/09 23:27:20;;;;;;;6.80;6.30;;;20.60;81.30;;;;;;10527996;28;20212;-77
2023/06/09 23:32:22;;;;;;;7.43;6.90;;;20.50;82.60;;;;;;10545687;28;20250;-77
2023/06/09 23:37:27;;;;;;;7.97;7.27;;;20.50;83.00;;;;;;10544061;28;20596;-77
2023/06/09 23:42:29;;;;;;;6.33;5.93;;;20.40;82.50;;;;;;10543174;28;20212;-77
2023/06/09 23:47:32;;;;;;;8.10;7.40;;;20.40;84.30;;;;;;10523934;28;20724;-78
2023/06/09 23:52:35;;;;;;;6.60;6.10;;;20.40;85.20;;;;;;10542407;28;20193;-77
2023/06/09 23:57:37;;;;;;;7.77;7.10;;;20.30;84.80;;;;;;10542897;28;20208;-77
